Time;durP1;ratioP1;P1;durP2;ratioP2;P2;SDS_P1;SDS_P2;PMS_P1;PMS_P2;Temp;Humidity;BMP_temperature;BMP_pressure;BME280_temperature;BME280_humidity;BME280_pressure;Samples;Min_cycle;Max_cycle;Signal;HPM_P1;HPM_P2
2021/08/25 00:01:36;;;;;;;0.80;0.70;;;;;;;11.81;100.00;25081.59;5052966;28;20498;-72
2021/08/25 00:04:05;;;;;;;0.70;0.60;;;;;;;11.78;100.00;25326.75;5055939;28;20416;-73
2021/08/25 00:06:33;;;;;;;0.73;0.70;;;;;;;11.76;100.00;25674.44;5055450;28;20431;-72
2021/08/25 00:09:00;;;;;;;0.80;0.80;;;;;;;11.65;100.00;25732.88;5053367;28;20545;-72
2021/08/25 00:11:27;;;;;;;0.70;0.60;;;;;;;11.67;100.00;26186.59;5055718;28;20467;-71
2021/08/25 00:13:54;;;;;;;0.70;0.70;;;;;;;11.63;100.00;26161.72;5055948;28;20767;-72
2021/08/25 00:16:20;;;;;;;0.70;0.60;;;;;;;11.69;100.00;25915.28;5053141;28;20939;-73
2021/08/25 00:18:48;;;;;;;0.70;0.60;;;;;;;11.63;100.00;25953.03;5054994;28;20489;-71
2021/08/25 00:21:15;;;;;;;0.70;0.67;;;;;;;11.61;100.00;26095.03;5087387;28;20451;-72
2021/08/25 00:23:43;;;;;;;0.70;0.60;;;;;;;11.55;100.00;25822.09;5055597;28;20448;-73
2021/08/25 00:26:13;;;;;;;0.80;0.70;;;;;;;11.50;100.00;25837.69;5064730;28;20440;-71
2021/08/25 00:28:40;;;;;;;0.70;0.60;;;;;;;11.49;100.00;25600.63;5071882;28;20507;-72
2021/08/25 00:31:07;;;;;;;0.70;0.60;;;;;;;11.46;100.00;25293.69;5051591;28;20466;-72
2021/08/25 00:33:34;;;;;;;0.70;0.60;;;;;;;11.38;100.00;25017.94;5053873;28;20453;-72
2021/08/25 00:36:01;;;;;;;0.70;0.60;;;;;;;11.41;100.00;24843.91;5055192;28;20451;-72
2021/08/25 00:38:28;;;;;;;0.80;0.60;;;;;;;11.33;100.00;24329.06;5070626;28;20523;-71
2021/08/25 00:40:58;;;;;;;0.70;0.60;;;;;;;11.32;100.00;23736.34;5055274;28;20472;-71
2021/08/25 00:43:25;;;;;;;0.80;0.70;;;;;;;11.25;100.00;22343.47;5037171;28;20982;-71
2021/08/25 00:45:53;;;;;;;0.70;0.60;;;;;;;11.20;100.00;21243.91;5053747;28;20489;-72
2021/08/25 00:48:20;;;;;;;1.43;1.33;;;;;;;11.17;100.00;21024.28;5054493;28;20502;-72
2021/08/25 00:50:49;;;;;;;0.70;0.70;;;;;;;11.15;100.00;20426.88;5053136;28;20538;-72
2021/08/25 00:53:19;;;;;;;0.80;0.80;;;;;;;11.10;100.00;19684.16;5054903;28;20442;-72
2021/08/25 00:55:46;;;;;;;0.80;0.80;;;;;;;11.24;100.00;18983.84;5053662;28;20793;-72
2021/08/25 00:58:15;;;;;;;0.70;0.60;;;;;;;11.20;100.00;17875.94;5053521;28;20441;-71
2021/08/25 01:00:47;;;;;;;0.70;0.60;;;;;;;11.19;100.00;16904.16;5051423;28;20450;-71
2021/08/25 01:03:19;;;;;;;0.70;0.60;;;;;;;11.16;100.00;15878.97;5054835;28;20445;-72
2021/08/25 01:05:47;;;;;;;0.80;0.70;;;;;;;11.15;100.00;15125.84;5055974;28;20498;-71
2021/08/25 01:08:16;;;;;;;0.70;0.60;;;;;;;11.08;100.00;13978.53;5053444;28;20498;-72
2021/08/25 01:10:44;;;;;;;0.70;0.60;;;;;;;11.00;100.00;12894.75;5053075;28;20776;-72
2021/08/25 01:13:12;;;;;;;0.70;0.60;;;;;;;10.98;100.00;11792.94;5054594;28;20422;-72
2021/08/25 01:15:42;;;;;;;0.70;0.60;;;;;;;10.99;100.00;10431.53;5053396;28;20435;-72
2021/08/25 01:18:14;;;;;;;0.97;0.97;;;;;;;10.97;100.00;9325.72;5054125;28;20821;-70
2021/08/25 01:20:43;;;;;;;0.70;0.60;;;;;;;10.92;100.00;8179.13;5054024;28;20443;-70
2021/08/25 01:23:34;;;;;;;0.80;0.70;;;;;;;10.94;100.00;7044.53;5070720;28;20455;-71
2021/08/25 01:26:02;;;;;;;0.70;0.60;;;;;;;10.95;100.00;6041.47;5074415;28;20437;-71
2021/08/25 01:28:54;;;;;;;0.70;0.60;;;;;;;10.92;100.00;4752.69;5063043;28;20465;-70
2021/08/25 01:31:43;;;;;;;0.80;0.73;;;;;;;10.96;100.00;3548.66;5050417;28;20451;-70
2021/08/25 01:34:10;;;;;;;0.70;0.60;;;;;;;10.93;100.00;2485.63;5052635;28;20456;-73
2021/08/25 01:36:37;;;;;;;1.63;1.53;;;;;;;10.88;100.00;1569.19;5054193;28;20507;-72
2021/08/25 01:39:06;;;;;;;0.70;0.60;;;;;;;10.87;100.00;673.53;5052955;28;20520;-70
2021/08/25 01:41:33;;;;;;;0.70;0.70;;;;;;;10.86;100.00;-138.59;5052836;28;20438;-72
2021/08/25 01:44:02;;;;;;;0.70;0.70;;;;;;;10.83;100.00;-1298.44;5053982;28;20414;-71
2021/08/25 01:46:32;;;;;;;0.70;0.60;;;;;;;10.81;100.00;-2233.50;5048363;28;20458;-70
2021/08/25 01:49:05;;;;;;;0.70;0.60;;;;;;;10.80;100.00;-2875.97;5052711;28;20530;-70
2021/08/25 01:51:51;;;;;;;0.70;0.60;;;;;;;10.81;100.00;-3750.00;5052365;28;20791;-70
2021/08/25 01:54:18;;;;;;;0.70;0.70;;;;;;;10.77;100.00;-4427.41;5051673;28;20462;-72
2021/08/25 01:56:45;;;;;;;0.77;0.70;;;;;;;10.71;100.00;-5258.09;5036252;28;20941;-70
2021/08/25 01:59:16;;;;;;;0.70;0.60;;;;;;;10.71;100.00;-6018.16;5053643;28;20444;-72
2021/08/25 02:01:43;;;;;;;0.70;0.60;;;;;;;10.72;100.00;-6954.16;5053485;28;20525;-71
2021/08/25 02:04:12;;;;;;;0.80;0.80;;;;;;;10.65;100.00;-7753.66;5085791;28;20797;-72
2021/08/25 02:06:39;;;;;;;0.70;0.60;;;;;;;10.67;100.00;-8417.63;5053527;28;20426;-71
2021/08/25 02:09:06;;;;;;;0.80;0.70;;;;;;;10.67;100.00;-9114.03;5053523;28;20975;-71
2021/08/25 02:11:33;;;;;;;0.70;0.60;;;;;;;10.63;100.00;-9935.69;5053718;28;20745;-72
2021/08/25 02:14:01;;;;;;;1.23;0.80;;;;;;;10.61;100.00;-10674.16;5052935;28;20420;-73
2021/08/25 02:16:31;;;;;;;0.70;0.60;;;;;;;10.56;100.00;-11316.75;5052831;28;20931;-72
2021/08/25 02:18:59;;;;;;;0.70;0.60;;;;;;;10.53;100.00;-12037.16;5052217;28;20826;-71
2021/08/25 02:21:27;;;;;;;0.70;0.60;;;;;;;10.49;100.00;-12601.53;5052621;28;20457;-71
2021/08/25 02:24:16;;;;;;;0.70;0.60;;;;;;;10.52;100.00;-13224.53;5052584;28;20484;-72
2021/08/25 02:26:44;;;;;;;0.70;0.60;;;;;;;10.52;100.00;-13646.19;5052115;28;20492;-70
2021/08/25 02:29:11;;;;;;;0.80;0.70;;;;;;;10.52;100.00;-14133.06;5051623;28;20982;-70
2021/08/25 02:31:38;;;;;;;0.70;0.60;;;;;;;10.50;100.00;-14509.00;5052635;28;20555;-70
2021/08/25 02:34:05;;;;;;;0.70;0.70;;;;;;;10.48;100.00;-14910.16;5053243;28;20422;-70
2021/08/25 02:36:33;;;;;;;1.33;1.00;;;;;;;10.43;100.00;-15531.22;5053262;28;20463;-71
2021/08/25 02:39:00;;;;;;;0.70;0.60;;;;;;;10.41;100.00;-15982.31;5051082;28;20470;-70
2021/08/25 02:41:27;;;;;;;0.70;0.70;;;;;;;10.45;100.00;-16406.88;5051817;28;20851;-72
2021/08/25 02:43:55;;;;;;;0.70;0.70;;;;;;;10.43;100.00;-16807.59;5053120;28;20451;-72
2021/08/25 02:46:21;;;;;;;0.70;0.60;;;;;;;10.36;100.00;-17442.78;5044579;28;20439;-72
2021/08/25 02:48:51;;;;;;;0.70;0.60;;;;;;;10.36;100.00;-17826.31;5052853;28;20473;-71
2021/08/25 02:51:18;;;;;;;0.70;0.60;;;;;;;10.32;100.00;-18576.94;5053203;28;20449;-72
2021/08/25 02:53:46;;;;;;;0.70;0.70;;;;;;;10.31;100.00;-19338.16;5053087;28;20489;-71
2021/08/25 02:56:13;;;;;;;0.70;0.60;;;;;;;10.31;100.00;-19849.19;5052876;28;20524;-71
2021/08/25 02:58:40;;;;;;;1.17;0.87;;;;;;;10.29;100.00;-20324.25;5051893;28;20511;-72
2021/08/25 03:01:07;;;;;;;0.70;0.60;;;;;;;10.29;100.00;-20649.88;5084500;28;20977;-72
2021/08/25 03:03:35;;;;;;;0.70;0.60;;;;;;;10.26;100.00;-20939.28;5085163;28;20447;-71
2021/08/25 03:06:02;;;;;;;0.70;0.67;;;;;;;10.23;100.00;-20960.34;5051773;28;20950;-71
2021/08/25 03:08:30;;;;;;;1.00;0.90;;;;;;;10.22;100.00;-20960.06;5053080;28;20478;-71
2021/08/25 03:10:58;;;;;;;1.40;1.07;;;;;;;10.22;100.00;-20960.22;5051587;28;20444;-71
2021/08/25 03:13:26;;;;;;;0.70;0.60;;;;;;;10.19;100.00;-20959.25;5053061;28;20486;-72
2021/08/25 03:15:53;;;;;;;0.70;0.60;;;;;;;10.18;100.00;-20958.97;5052325;28;20428;-72
2021/08/25 03:18:20;;;;;;;0.70;0.60;;;;;;;10.15;100.00;-20958.28;5051574;28;20432;-72
2021/08/25 03:20:48;;;;;;;0.70;0.60;;;;;;;10.09;100.00;-20956.75;5051590;28;20926;-71
2021/08/25 03:23:15;;;;;;;0.70;0.60;;;;;;;10.10;100.00;-20957.03;5052877;28;20471;-71
2021/08/25 03:25:42;;;;;;;0.97;0.90;;;;;;;10.11;100.00;-20957.31;5053641;28;20416;-71
2021/08/25 03:28:11;;;;;;;0.70;0.60;;;;;;;10.06;100.00;-20955.91;5054725;28;20943;-71
2021/08/25 03:30:38;;;;;;;0.70;0.60;;;;;;;10.01;100.00;-20954.53;5055301;28;20451;-71
2021/08/25 03:33:06;;;;;;;1.07;0.90;;;;;;;10.07;100.00;-20956.19;5056408;28;20433;-71
2021/08/25 03:35:33;;;;;;;0.70;0.60;;;;;;;10.04;100.00;-20955.38;5055335;28;20948;-71
2021/08/25 03:38:00;;;;;;;0.70;0.60;;;;;;;10.06;100.00;-20955.91;5055275;28;20444;-71
2021/08/25 03:40:27;;;;;;;0.70;0.70;;;;;;;10.05;100.00;-20955.50;5056576;28;20409;-71
2021/08/25 03:42:54;;;;;;;0.70;0.60;;;;;;;10.03;100.00;-20955.09;5056270;28;20415;-72
2021/08/25 03:45:23;;;;;;;0.70;0.70;;;;;;;10.07;100.00;-20956.19;5036110;28;20488;-72
2021/08/25 03:47:50;;;;;;;0.70;0.70;;;;;;;10.03;100.00;-20954.94;5035893;28;20853;-74
2021/08/25 03:50:17;;;;;;;0.87;0.87;;;;;;;9.98;100.00;-20953.72;5052442;28;20464;-72
2021/08/25 03:52:44;;;;;;;0.70;0.60;;;;;;;9.94;100.00;-20952.59;5055853;28;20546;-71
2021/08/25 03:55:11;;;;;;;0.70;0.60;;;;;;;9.92;100.00;-20952.19;5053731;28;20442;-71
2021/08/25 03:57:38;;;;;;;0.70;0.60;;;;;;;9.96;100.00;-20953.00;5056009;28;20429;-71
2021/08/25 04:00:06;;;;;;;0.70;0.60;;;;;;;9.91;100.00;-20951.78;5055868;28;20408;-71
2021/08/25 04:02:42;;;;;;;0.70;0.60;;;;;;;9.98;100.00;-20953.56;5054760;28;20531;-71
2021/08/25 04:05:09;;;;;;;0.70;0.60;;;;;;;9.93;100.00;-20952.47;5082222;28;20438;-71
2021/08/25 04:07:37;;;;;;;0.70;0.60;;;;;;;9.85;100.00;-20950.09;5035802;28;20440;-73
2021/08/25 04:10:05;;;;;;;0.80;0.80;;;;;;;9.84;100.00;-20949.81;5035545;28;20461;-71
2021/08/25 04:12:32;;;;;;;0.70;0.60;;;;;;;9.82;100.00;-20949.41;5054116;28;20528;-71
2021/08/25 04:14:59;;;;;;;0.70;0.63;;;;;;;9.90;100.00;-20951.50;5055592;28;20437;-71
2021/08/25 04:17:26;;;;;;;0.70;0.60;;;;;;;9.84;100.00;-20949.81;5036551;28;20475;-71
2021/08/25 04:19:54;;;;;;;0.70;0.60;;;;;;;9.83;100.00;-20949.56;5053977;28;20479;-71
2021/08/25 04:22:21;;;;;;;0.70;0.60;;;;;;;9.78;100.00;-20948.31;5055516;28;20440;-71
2021/08/25 04:24:49;;;;;;;0.70;0.70;;;;;;;9.81;100.00;-20949.13;5055288;28;20508;-71
2021/08/25 04:27:16;;;;;;;0.70;0.60;;;;;;;9.86;100.00;-20950.53;5055177;28;20419;-72
2021/08/25 04:29:43;;;;;;;0.70;0.60;;;;;;;9.90;100.00;-20951.63;5053581;28;20924;-71
2021/08/25 04:32:10;;;;;;;0.70;0.60;;;;;;;9.90;100.00;-20951.63;5054663;28;20874;-71
2021/08/25 04:34:39;;;;;;;0.70;0.60;;;;;;;9.82;100.00;-20949.28;5074212;28;20458;-71
2021/08/25 04:37:07;;;;;;;0.70;0.70;;;;;;;9.75;100.00;-20947.34;5048100;28;20436;-71
2021/08/25 04:39:34;;;;;;;0.70;0.60;;;;;;;9.68;100.00;-20945.69;5055203;28;20482;-72
2021/08/25 04:42:02;;;;;;;0.70;0.60;;;;;;;9.70;100.00;-20946.09;5055307;28;20417;-70
2021/08/25 04:44:29;;;;;;;0.70;0.60;;;;;;;9.75;100.00;-20947.34;5085622;28;20977;-70
2021/08/25 04:46:56;;;;;;;0.70;0.60;;;;;;;9.78;100.00;-20948.16;5054755;28;20444;-70
2021/08/25 04:49:23;;;;;;;0.70;0.60;;;;;;;9.82;100.00;-20949.28;5053097;28;20835;-70
2021/08/25 04:51:50;;;;;;;0.70;0.63;;;;;;;9.88;100.00;-20950.94;5055092;28;20455;-70
2021/08/25 04:54:18;;;;;;;0.70;0.60;;;;;;;9.95;100.00;-20952.75;5054892;28;20896;-70
2021/08/25 04:56:45;;;;;;;0.70;0.60;;;;;;;9.96;100.00;-20953.00;5053759;28;20452;-69
2021/08/25 04:59:12;;;;;;;0.70;0.60;;;;;;;10.01;100.00;-20954.41;5053478;28;20417;-70
2021/08/25 05:01:39;;;;;;;0.70;0.60;;;;;;;10.00;100.00;-20954.13;5053761;28;20448;-72
2021/08/25 05:04:06;;;;;;;0.70;0.60;;;;;;;10.02;100.00;-20954.69;5053968;28;20840;-72
2021/08/25 05:06:33;;;;;;;0.80;0.70;;;;;;;10.03;100.00;-20955.09;5053461;28;20546;-72
2021/08/25 05:09:00;;;;;;;0.80;0.70;;;;;;;10.09;100.00;-20956.63;5054460;28;20522;-69
2021/08/25 05:11:29;;;;;;;0.70;0.60;;;;;;;10.14;100.00;-20958.13;5055711;28;20417;-72
2021/08/25 05:13:56;;;;;;;0.70;0.60;;;;;;;10.15;100.00;-20958.41;5052423;28;21032;-70
2021/08/25 05:16:23;;;;;;;13.60;1.30;;;;;;;10.18;100.00;-20958.97;5056215;28;20459;-71
2021/08/25 05:18:50;;;;;;;0.70;0.60;;;;;;;10.28;100.00;-20961.75;5053932;28;20409;-71
2021/08/25 05:21:17;;;;;;;0.80;0.70;;;;;;;10.30;100.00;-20962.28;5053639;28;20488;-72
2021/08/25 05:23:44;;;;;;;0.70;0.60;;;;;;;10.33;100.00;-20963.25;5053800;28;21032;-70
2021/08/25 05:26:11;;;;;;;1.63;1.00;;;;;;;10.42;100.00;-20965.63;5052934;28;20444;-70
2021/08/25 05:28:40;;;;;;;0.70;0.60;;;;;;;10.46;100.00;-20966.72;5052453;28;20470;-70
2021/08/25 05:31:06;;;;;;;0.80;0.77;;;;;;;10.51;100.00;-20968.09;5035937;28;20473;-69
2021/08/25 05:33:33;;;;;;;0.80;0.70;;;;;;;10.61;100.00;-20970.88;5053077;28;20799;-69
2021/08/25 05:36:00;;;;;;;0.70;0.60;;;;;;;10.69;100.00;-20972.94;5052508;28;20443;-71
2021/08/25 05:38:28;;;;;;;0.70;0.60;;;;;;;10.76;100.00;-20974.88;5050547;28;20505;-70
2021/08/25 05:40:54;;;;;;;0.70;0.60;;;;;;;10.91;100.00;-20978.88;5051271;28;20441;-71
2021/08/25 05:43:22;;;;;;;0.70;0.60;;;;;;;10.99;100.00;-20981.09;5050363;28;20524;-72
2021/08/25 05:45:50;;;;;;;0.70;0.70;;;;;;;11.13;100.00;-20984.97;5051546;28;20451;-70
2021/08/25 05:48:18;;;;;;;0.70;0.60;;;;;;;11.25;100.00;-20988.00;5052464;28;20458;-72
2021/08/25 05:50:45;;;;;;;0.70;0.60;;;;;;;11.30;100.00;-20989.53;5053532;28;20540;-72
2021/08/25 05:53:12;;;;;;;1.73;0.97;;;;;;;11.42;100.00;-20992.72;5051756;28;20520;-71
2021/08/25 05:55:39;;;;;;;0.80;0.77;;;;;;;11.54;100.00;-20996.03;5053494;28;20437;-70
2021/08/25 05:58:06;;;;;;;0.93;0.93;;;;;;;11.64;100.00;-20998.50;5052043;28;20961;-70
2021/08/25 06:00:34;;;;;;;0.70;0.60;;;;;;;11.76;100.00;-21001.84;5053244;28;20439;-70
2021/08/25 06:03:03;;;;;;;0.70;0.63;;;;;;;11.88;100.00;-21005.16;5051364;28;20427;-70
2021/08/25 06:05:30;;;;;;;0.70;0.70;;;;;;;12.01;100.00;-21008.75;5053116;28;20525;-71
2021/08/25 06:07:57;;;;;;;0.70;0.60;;;;;;;12.17;100.00;-21012.88;5051623;28;20463;-72
2021/08/25 06:10:24;;;;;;;0.70;0.70;;;;;;;12.31;100.00;-21016.75;5053664;28;20474;-70
2021/08/25 06:12:51;;;;;;;0.80;0.70;;;;;;;12.38;100.00;-21018.69;5052957;28;20470;-70
2021/08/25 06:15:19;;;;;;;0.70;0.60;;;;;;;12.46;100.00;-21020.75;5049489;28;20891;-70
2021/08/25 06:17:46;;;;;;;0.70;0.70;;;;;;;12.57;100.00;-21023.94;5052950;28;20424;-70
2021/08/25 06:20:15;;;;;;;0.80;0.70;;;;;;;12.69;100.00;-21026.97;5051231;28;20463;-70
2021/08/25 06:22:42;;;;;;;0.73;0.70;;;;;;;12.83;100.00;-21030.81;5053449;28;20452;-72
2021/08/25 06:25:10;;;;;;;0.70;0.70;;;;;;;12.95;100.00;-21034.13;5085509;28;20544;-72
2021/08/25 06:27:38;;;;;;;0.70;0.60;;;;;;;13.12;100.00;-21038.53;5051246;28;20924;-72
2021/08/25 06:30:06;;;;;;;0.70;0.60;;;;;;;13.28;100.00;-21042.97;5053249;28;20460;-72
2021/08/25 06:32:33;;;;;;;0.70;0.63;;;;;;;13.36;100.00;-20837.00;5052250;28;20477;-72
2021/08/25 06:35:00;;;;;;;0.70;0.60;;;;;;;13.52;100.00;-20506.66;5052999;28;20864;-72
2021/08/25 06:37:29;;;;;;;0.70;0.70;;;;;;;13.64;100.00;-20159.84;5053222;28;21115;-72
2021/08/25 06:39:56;;;;;;;0.80;0.70;;;;;;;13.77;100.00;-19740.22;5051529;28;20436;-72
2021/08/25 06:42:23;;;;;;;0.70;0.60;;;;;;;13.90;100.00;-19310.16;5052176;28;20429;-73
2021/08/25 06:44:50;;;;;;;0.80;0.80;;;;;;;14.06;100.00;-18731.75;5051408;28;20469;-72
2021/08/25 06:47:17;;;;;;;0.80;0.70;;;;;;;14.27;100.00;-18116.53;5050777;28;20440;-70
2021/08/25 06:49:44;;;;;;;0.70;0.70;;;;;;;14.40;100.00;-17415.69;5052604;28;20476;-72
2021/08/25 06:52:11;;;;;;;0.80;0.70;;;;;;;14.57;100.00;-16601.63;5051653;28;20435;-72
2021/08/25 06:54:40;;;;;;;0.70;0.70;;;;;;;14.68;100.00;-15861.63;5053124;28;20457;-74
2021/08/25 06:57:07;;;;;;;0.70;0.60;;;;;;;14.77;100.00;-15057.69;5053293;28;20899;-72
2021/08/25 06:59:34;;;;;;;0.70;0.70;;;;;;;14.87;100.00;-14354.56;5053251;28;20438;-72
2021/08/25 07:02:01;;;;;;;0.80;0.70;;;;;;;15.00;100.00;-13578.13;5056109;28;20450;-72
2021/08/25 07:04:28;;;;;;;0.70;0.60;;;;;;;15.24;100.00;-12683.84;5056264;28;20920;-72
2021/08/25 07:06:55;;;;;;;0.70;0.60;;;;;;;15.37;100.00;-11886.03;5056245;28;20455;-72
2021/08/25 07:09:24;;;;;;;0.70;0.60;;;;;;;15.60;100.00;-11139.38;5056078;28;20500;-72
2021/08/25 07:11:52;;;;;;;0.97;0.80;;;;;;;15.69;100.00;-10438.78;5056501;28;20878;-73
2021/08/25 07:14:19;;;;;;;0.70;0.60;;;;;;;15.75;100.00;-9970.63;5052903;28;20758;-70
2021/08/25 07:16:46;;;;;;;0.70;0.60;;;;;;;15.74;100.00;-9400.34;5054731;28;20575;-70
2021/08/25 07:19:13;;;;;;;0.70;0.70;;;;;;;15.80;100.00;-9233.56;5056228;28;20846;-72
2021/08/25 07:21:40;;;;;;;0.70;0.70;;;;;;;15.92;100.00;-9163.63;5056030;28;20445;-72
2021/08/25 07:24:08;;;;;;;0.80;0.77;;;;;;;16.15;100.00;-9910.94;5070129;28;20463;-73
2021/08/25 07:26:35;;;;;;;0.80;0.80;;;;;;;16.36;100.00;-10640.66;5056498;28;20494;-71
2021/08/25 07:29:03;;;;;;;0.80;0.70;;;;;;;16.53;100.00;-13147.31;5055416;28;20962;-70
2021/08/25 07:31:30;;;;;;;0.70;0.70;;;;;;;16.63;100.00;-18384.19;5056524;28;20852;-72
2021/08/25 07:33:58;;;;;;;0.77;0.70;;;;;;;16.86;100.00;-21139.53;5056244;28;20419;-70
2021/08/25 07:36:26;;;;;;;0.80;0.80;;;;;;;16.96;100.00;-21142.13;5055433;28;20435;-71
2021/08/25 07:38:53;;;;;;;0.80;0.70;;;;;;;17.11;100.00;-21146.13;5054292;28;20832;-72
2021/08/25 07:41:20;;;;;;;0.80;0.70;;;;;;;17.32;100.00;-21151.88;5056116;28;20439;-73
2021/08/25 07:43:47;;;;;;;1.30;1.20;;;;;;;17.39;100.00;-21153.66;5055734;28;20514;-72
2021/08/25 07:46:16;;;;;;;0.80;0.70;;;;;;;17.80;100.00;-21164.78;5048772;28;20446;-73
2021/08/25 07:48:43;;;;;;;0.70;0.67;;;;;;;17.96;100.00;-21168.88;5037088;28;20455;-72
2021/08/25 07:51:10;;;;;;;3.80;1.10;;;;;;;17.96;100.00;-21168.88;5054641;28;20461;-70
2021/08/25 07:53:38;;;;;;;0.70;0.60;;;;;;;18.18;100.00;-21174.91;5054888;28;20463;-73
2021/08/25 07:56:05;;;;;;;0.80;0.70;;;;;;;18.55;100.00;-21184.91;5055111;28;20442;-73
2021/08/25 07:58:33;;;;;;;0.80;0.80;;;;;;;18.54;100.00;-21184.63;5084135;28;20453;-72
2021/08/25 08:01:11;;;;;;;0.73;0.70;;;;;;;18.96;100.00;-21195.84;5056144;28;20465;-72
2021/08/25 08:03:39;;;;;;;0.80;0.70;;;;;;;19.20;100.00;-21202.28;5055451;28;20424;-72
2021/08/25 08:06:07;;;;;;;0.70;0.60;;;;;;;19.48;100.00;-21209.81;5049943;28;20445;-72
2021/08/25 08:08:34;;;;;;;0.80;0.73;;;;;;;19.69;100.00;-21215.28;5044637;28;20825;-72
2021/08/25 08:11:01;;;;;;;1.83;1.00;;;;;;;20.21;100.00;-21229.22;5051454;28;20459;-72
2021/08/25 08:13:29;;;;;;;0.80;0.70;;;;;;;20.12;100.00;-21226.91;5055463;28;20442;-72
2021/08/25 08:15:56;;;;;;;0.80;0.70;;;;;;;20.35;100.00;-21232.91;5051191;28;20958;-73
2021/08/25 08:18:37;;;;;;;0.80;0.70;;;;;;;20.98;100.00;-21249.84;5042549;28;20423;-72
2021/08/25 08:21:06;;;;;;;0.80;0.70;;;;;;;21.74;100.00;-21270.16;5055608;28;20431;-72
2021/08/25 08:23:34;;;;;;;0.80;0.70;;;;;;;21.66;100.00;-21267.97;5054267;28;20422;-72
2021/08/25 08:26:01;;;;;;;0.80;0.70;;;;;;;21.86;100.00;-21273.44;5071018;28;20427;-72
2021/08/25 08:28:29;;;;;;;1.03;0.93;;;;;;;22.43;100.00;-21288.56;5055209;28;20428;-72
2021/08/25 08:30:56;;;;;;;0.70;0.60;;;;;;;22.82;100.00;-21298.88;5054103;28;20464;-72
2021/08/25 08:33:23;;;;;;;0.70;0.57;;;;;;;22.53;100.00;-21291.28;5052684;28;20464;-72
2021/08/25 08:35:50;;;;;;;0.70;0.60;;;;;;;23.00;100.00;-21303.78;5053602;28;20505;-72
2021/08/25 08:38:18;;;;;;;0.90;0.70;;;;;;;23.79;100.00;-21324.88;5053223;28;20728;-72
2021/08/25 08:40:45;;;;;;;0.70;0.50;;;;;;;23.49;100.00;-21316.84;5055393;28;20401;-72
2021/08/25 08:43:13;;;;;;;1.00;0.90;;;;;;;23.76;100.00;-21324.06;5055140;28;20429;-72
2021/08/25 08:45:42;;;;;;;0.73;0.60;;;;;;;23.49;100.00;-21316.84;5052562;28;20489;-73
2021/08/25 08:48:11;;;;;;;0.90;0.60;;;;;;;24.46;100.00;-21342.66;5053864;28;20460;-72
2021/08/25 08:50:40;;;;;;;1.13;1.03;;;;;;;24.50;100.00;-21343.75;5055127;28;20916;-73
2021/08/25 08:53:09;;;;;;;1.53;1.43;;;;;;;25.10;100.00;-21359.50;5054411;28;20455;-73
2021/08/25 08:55:44;;;;;;;0.70;0.50;;;;;;;25.16;100.00;-21361.13;5053118;28;20511;-74
2021/08/25 08:58:13;;;;;;;0.70;0.50;;;;;;;25.95;100.00;-21382.25;5033641;28;21023;-72
2021/08/25 09:00:40;;;;;;;0.70;0.60;;;;;;;26.83;100.00;-21405.53;5052538;28;20432;-72
2021/08/25 09:03:19;;;;;;;0.77;0.60;;;;;;;26.24;100.00;-21389.84;5052617;28;20538;-73
2021/08/25 09:05:53;;;;;;;0.70;0.50;;;;;;;26.09;100.00;-21385.78;5044594;28;20432;-73
2021/08/25 09:08:23;;;;;;;0.70;0.50;;;;;;;26.05;100.00;-21384.69;5052301;28;20462;-73
2021/08/25 09:11:00;;;;;;;2.03;0.70;;;;;;;27.16;100.00;-21414.34;5053996;28;20455;-72
2021/08/25 09:13:33;;;;;;;0.80;0.63;;;;;;;28.20;100.00;-21441.63;5052592;28;20513;-74
2021/08/25 09:16:01;;;;;;;0.80;0.70;;;;;;;28.21;100.00;-21441.91;5050354;28;20448;-73
2021/08/25 09:18:29;;;;;;;0.80;0.60;;;;;;;28.35;100.00;-21445.81;5053862;28;20432;-72
2021/08/25 09:20:59;;;;;;;0.80;0.50;;;;;;;27.75;100.00;-21429.88;5035423;28;20494;-73
2021/08/25 09:23:28;;;;;;;0.80;0.50;;;;;;;28.77;100.00;-21456.75;5054686;28;20867;-73
2021/08/25 09:26:01;;;;;;;1.07;0.90;;;;;;;28.52;100.00;-21450.25;5054204;28;20864;-72
2021/08/25 09:28:30;;;;;;;0.90;0.67;;;;;;;27.91;100.00;-21434.19;5054827;28;20985;-71
2021/08/25 09:31:00;;;;;;;1.20;1.10;;;;;;;28.25;100.00;-21443.09;5052321;28;20490;-71
2021/08/25 09:33:31;;;;;;;0.90;0.60;;;;;;;29.47;100.00;-21475.19;5053466;28;20439;-72
2021/08/25 09:36:00;;;;;;;0.87;0.60;;;;;;;27.93;100.00;-21434.59;5052147;28;20849;-70
2021/08/25 09:38:29;;;;;;;0.80;0.57;;;;;;;27.96;100.00;-21435.28;5053333;28;20473;-73
2021/08/25 09:41:02;;;;;;;0.80;0.50;;;;;;;29.04;100.00;-21464.03;5052458;28;20414;-73
2021/08/25 09:43:41;;;;;;;1.67;1.00;;;;;;;29.84;100.00;-21485.03;5053432;28;20515;-72
2021/08/25 09:46:11;;;;;;;0.80;0.57;;;;;;;28.65;100.00;-21453.63;5051836;28;20430;-70
2021/08/25 09:48:40;;;;;;;0.80;0.50;;;;;;;29.53;100.00;-21476.81;5051197;28;20459;-70
2021/08/25 09:51:08;;;;;;;0.80;0.50;;;;;;;29.52;100.00;-21476.53;5053330;28;20463;-70
2021/08/25 09:53:36;;;;;;;0.80;0.60;;;;;;;28.59;100.00;-21452.16;5053885;28;20994;-70
2021/08/25 09:56:21;;;;;;;1.47;0.60;;;;;;;29.79;100.00;-21483.69;5051469;28;20844;-70
2021/08/25 09:58:48;;;;;;;0.80;0.50;;;;;;;29.90;100.00;-21486.50;5053539;28;20431;-70
2021/08/25 10:01:16;;;;;;;0.90;0.60;;;;;;;28.54;100.00;-21450.66;5051779;28;20439;-71
2021/08/25 10:03:44;;;;;;;0.80;0.50;;;;;;;28.27;100.00;-21443.66;5052349;28;20431;-72
2021/08/25 10:06:14;;;;;;;0.80;0.50;;;;;;;29.09;100.00;-21465.25;5051938;28;20436;-71
2021/08/25 10:08:42;;;;;;;0.80;0.50;;;;;;;29.61;100.00;-21478.97;5053132;28;20855;-73
2021/08/25 10:11:11;;;;;;;0.80;0.60;;;;;;;29.94;100.00;-21487.72;5084293;28;20470;-70
2021/08/25 10:13:40;;;;;;;1.30;0.87;;;;;;;30.35;100.00;-21498.34;5053497;28;20900;-70
2021/08/25 10:16:11;;;;;;;1.13;1.00;;;;;;;30.33;100.00;-21498.09;5050975;28;20531;-73
2021/08/25 10:18:40;;;;;;;0.80;0.50;;;;;;;29.37;100.00;-21472.78;5052780;28;20439;-70
2021/08/25 10:21:47;;;;;;;0.80;0.50;;;;;;;28.40;100.00;-21447.16;5083743;28;20788;-70
2021/08/25 10:24:14;;;;;;;2.23;1.13;;;;;;;28.65;100.00;-21453.63;5047429;28;20463;-71
2021/08/25 10:27:10;;;;;;;1.10;0.80;;;;;;;28.28;100.00;-21443.91;5051680;28;21059;-73
2021/08/25 10:30:06;;;;;;;0.93;0.77;;;;;;;29.11;100.00;-21465.78;5048317;28;20447;-73
2021/08/25 10:32:34;;;;;;;2.20;1.23;;;;;;;28.77;100.00;-21456.88;5050482;28;20795;-73
2021/08/25 10:35:22;;;;;;;0.80;0.60;;;;;;;30.21;100.00;-21494.88;5053036;28;20570;-72
2021/08/25 10:37:51;;;;;;;0.80;0.53;;;;;;;30.05;100.00;-21490.56;5055940;28;20456;-73
2021/08/25 10:40:31;;;;;;;0.80;0.60;;;;;;;29.60;100.00;-21478.72;5056113;28;20475;-73
2021/08/25 10:43:02;;;;;;;0.80;0.50;;;;;;;29.19;100.00;-21467.94;5057090;28;20439;-70
2021/08/25 10:45:56;;;;;;;0.80;0.50;;;;;;;30.10;100.00;-21491.91;5075239;28;20436;-70
2021/08/25 10:48:44;;;;;;;1.00;0.63;;;;;;;30.69;100.00;-21507.50;5050795;28;20450;-72
2021/08/25 10:51:32;;;;;;;0.90;0.70;;;;;;;28.92;100.00;-21460.78;5035903;28;20471;-72
2021/08/25 10:54:00;;;;;;;1.33;0.60;;;;;;;29.40;100.00;-21473.31;5054334;28;20885;-73
2021/08/25 10:56:30;;;;;;;0.93;0.83;;;;;;;29.93;100.00;-21487.47;5056751;28;20530;-73
2021/08/25 10:59:00;;;;;;;0.80;0.50;;;;;;;29.22;100.00;-21468.59;5057437;28;20443;-73
2021/08/25 11:01:31;;;;;;;0.80;0.50;;;;;;;29.25;100.00;-21469.53;5087738;28;20440;-72
2021/08/25 11:04:00;;;;;;;0.80;0.53;;;;;;;28.69;100.00;-21454.59;5056579;28;20986;-70
2021/08/25 11:06:36;;;;;;;0.90;0.67;;;;;;;29.20;100.00;-21468.19;5054990;28;20440;-69
2021/08/25 11:09:14;;;;;;;0.90;0.80;;;;;;;28.96;100.00;-21461.72;5056051;28;21013;-70
2021/08/25 11:11:45;;;;;;;0.80;0.70;;;;;;;29.20;100.00;-21468.19;5085096;28;20455;-73
2021/08/25 11:14:18;;;;;;;0.80;0.50;;;;;;;30.50;100.00;-21502.41;5054806;28;20493;-72
2021/08/25 11:16:47;;;;;;;0.80;0.60;;;;;;;29.89;100.00;-21486.38;5078443;28;20445;-72
2021/08/25 11:19:26;;;;;;;1.70;1.10;;;;;;;29.50;100.00;-21476.00;5084961;28;20431;-73
2021/08/25 11:21:54;;;;;;;0.80;0.50;;;;;;;29.01;100.00;-21463.06;5055562;28;20900;-74
2021/08/25 11:24:22;;;;;;;1.00;0.80;;;;;;;28.89;100.00;-21459.97;5055429;28;20456;-73
2021/08/25 11:26:49;;;;;;;0.90;0.60;;;;;;;28.69;100.00;-21454.72;5056173;28;20432;-73
2021/08/25 11:29:21;;;;;;;0.77;0.50;;;;;;;28.87;100.00;-21459.56;5054361;28;20435;-73